Terminal Aerodrome Forecast
Issued by NWS

Current Version | Previous Version | Text Only | Print | Product List | Glossary Off
Versions: 1 2 3 4 5 6 7 8 9 10 11 12 13 14 15 16 17 18 19 20

921
FTUS41 KILN 231138
TAFLCK
TAF
KLCK 231138Z 2312/2412 VRB03KT P6SM SCT200
     FM231400 32003KT P6SM FEW040 SCT250
     FM240200 04005KT P6SM BKN120
     FM240900 05006KT P6SM SCT025 BKN050=

USA.gov is the U.S. government's official web portal to all federal, state and local government web resources and services.